Terminal Aerodrome Forecast
Issued by NWS North Platte, NE

Home | Current Version | Previous Version | Text Only | Print | Product List | Glossary On
Versions: 1 2 3 4 5 6 7 8 9 10 11 12 13 14 15 16 17 18 19 20
081
FTUS43 KLBF 261749 RRA
TAFLBF
TAF
KLBF 261749Z 2618/2718 27009KT P6SM SKC
     FM270200 19004KT P6SM SKC
     FM271300 17005KT P6SM FEW250 WS015/20035KT
     FM271600 18007KT P6SM SCT200=

USA.gov is the U.S. government's official web portal to all federal, state and local government web resources and services.